Time;durP1;ratioP1;P1;durP2;ratioP2;P2;SDS_P1;SDS_P2;PMS_P1;PMS_P2;Temp;Humidity;BMP_temperature;BMP_pressure;BME280_temperature;BME280_humidity;BME280_pressure;Samples;Min_cycle;Max_cycle;Signal;HPM_P1;HPM_P2
2022/10/29 00:00:32;;;;;;;16.35;8.13;;;;;;;14.91;88.44;100835.06;2010774;29;20049;-67
2022/10/29 00:01:35;;;;;;;26.40;9.00;;;;;;;14.91;88.42;100835.06;2010033;29;20505;-67
2022/10/29 00:02:37;;;;;;;16.42;7.32;;;;;;;14.93;88.49;100842.88;1995135;29;20046;-67
2022/10/29 00:03:47;;;;;;;16.92;6.65;;;;;;;14.93;88.61;100835.56;2003865;29;20818;-68
2022/10/29 00:04:50;;;;;;;18.48;7.65;;;;;;;14.94;88.47;100834.47;2009724;29;20061;-68
2022/10/29 00:06:01;;;;;;;14.63;6.90;;;;;;;14.94;88.69;100828.22;2009113;29;20053;-68
2022/10/29 00:07:09;;;;;;;13.73;6.97;;;;;;;14.93;88.73;100822.03;2009151;29;20057;-67
2022/10/29 00:08:11;;;;;;;12.98;6.70;;;;;;;14.94;88.30;100829.06;2010087;29;20048;-68
2022/10/29 00:09:16;;;;;;;15.50;6.40;;;;;;;14.97;88.76;100822.22;2002462;29;20056;-67
2022/10/29 00:10:21;;;;;;;15.52;6.60;;;;;;;14.98;88.81;100821.94;2003607;29;20046;-67
2022/10/29 00:11:27;;;;;;;15.45;6.88;;;;;;;14.98;88.78;100821.94;2010095;29;20430;-67
2022/10/29 00:12:33;;;;;;;16.35;7.03;;;;;;;15.01;88.55;100817.81;2003640;29;20058;-66
2022/10/29 00:13:40;;;;;;;17.17;6.22;;;;;;;15.01;88.80;100807.78;2010115;29;20044;-67
2022/10/29 00:14:48;;;;;;;13.63;6.30;;;;;;;15.03;88.72;100813.69;2009859;29;20061;-67
2022/10/29 00:15:53;;;;;;;15.55;6.20;;;;;;;15.04;88.63;100818.00;2010842;29;20054;-67
2022/10/29 00:16:58;;;;;;;15.32;6.47;;;;;;;15.04;88.32;100822.63;2010449;29;20049;-67
2022/10/29 00:18:03;;;;;;;15.95;5.95;;;;;;;15.05;88.51;100821.53;2019015;29;20417;-67
2022/10/29 00:19:05;;;;;;;17.27;6.82;;;;;;;15.06;88.63;100821.19;2017085;29;20052;-67
2022/10/29 00:20:09;;;;;;;12.02;6.72;;;;;;;15.07;88.41;100817.41;2010303;29;20439;-67
2022/10/29 00:21:16;;;;;;;18.20;8.18;;;;;;;15.09;88.55;100813.59;2016459;29;20048;-68
2022/10/29 00:22:21;;;;;;;16.83;8.63;;;;;;;15.10;88.42;100818.72;2016633;29;20641;-69
2022/10/29 00:23:25;;;;;;;16.10;6.78;;;;;;;15.10;88.32;100813.31;2002092;29;20045;-68
2022/10/29 00:24:29;;;;;;;18.48;6.65;;;;;;;15.12;88.74;100813.00;2002813;29;20038;-68
2022/10/29 00:25:36;;;;;;;14.18;6.10;;;;;;;15.12;88.25;100815.69;2009755;29;20049;-68
2022/10/29 00:26:39;;;;;;;10.85;5.95;;;;;;;15.13;88.45;100809.16;2002806;29;20041;-68
2022/10/29 00:27:42;;;;;;;12.10;5.53;;;;;;;15.15;88.71;100809.69;2002429;29;20053;-68
2022/10/29 00:28:49;;;;;;;14.85;5.60;;;;;;;15.17;88.20;100804.75;2009384;29;20050;-68
2022/10/29 00:29:55;;;;;;;10.82;5.78;;;;;;;15.18;88.66;100806.38;2010396;29;20053;-68
2022/10/29 00:31:00;;;;;;;17.48;6.32;;;;;;;15.21;88.37;100800.34;2010024;29;20056;-68
2022/10/29 00:32:04;;;;;;;12.88;5.30;;;;;;;15.23;88.55;100803.56;2003898;29;20168;-68
2022/10/29 00:33:08;;;;;;;12.25;5.63;;;;;;;15.25;88.42;100801.31;2010546;29;20037;-68
2022/10/29 00:34:12;;;;;;;18.23;5.90;;;;;;;15.28;88.51;100803.44;2003401;29;20521;-68
2022/10/29 00:35:15;;;;;;;18.08;5.45;;;;;;;15.30;88.35;100810.16;2004235;29;20490;-69
2022/10/29 00:36:23;;;;;;;13.00;5.80;;;;;;;15.32;88.63;100798.19;2014645;29;20057;-69
2022/10/29 00:37:25;;;;;;;13.27;5.20;;;;;;;15.33;88.41;100800.63;2010813;29;20037;-69
2022/10/29 00:38:31;;;;;;;10.38;5.60;;;;;;;15.34;88.46;100801.41;2003407;29;20046;-69
2022/10/29 00:39:36;;;;;;;11.88;5.38;;;;;;;15.33;88.67;100795.19;2004229;29;20054;-68
2022/10/29 00:40:45;;;;;;;8.70;5.60;;;;;;;15.35;88.55;100797.59;2010709;29;20061;-69
2022/10/29 00:41:52;;;;;;;13.57;5.65;;;;;;;15.37;88.49;100798.91;2018347;29;20409;-69
2022/10/29 00:43:12;;;;;;;11.70;5.65;;;;;;;15.38;88.34;100794.28;2003193;29;20411;-69
2022/10/29 00:44:21;;;;;;;12.05;5.32;;;;;;;15.37;88.19;100798.91;1999675;29;20086;-68
2022/10/29 00:45:23;;;;;;;;;;;;;;;15.38;88.53;100799.69;2011153;29;20045;-68
2022/10/29 00:46:34;;;;;;;15.25;5.72;;;;;;;15.40;88.24;100792.88;2010612;29;20312;-69
2022/10/29 00:47:41;;;;;;;13.70;5.07;;;;;;;15.43;88.42;100794.19;2010632;29;20053;-68
2022/10/29 00:48:54;;;;;;;12.55;5.30;;;;;;;15.43;88.41;100792.25;2010402;29;20057;-69
2022/10/29 00:50:03;;;;;;;12.02;5.68;;;;;;;15.45;88.21;100791.97;2004296;29;20057;-68
2022/10/29 00:51:12;;;;;;;10.07;5.35;;;;;;;15.47;88.39;100790.53;2011382;29;20045;-69
2022/10/29 00:52:17;;;;;;;15.02;6.05;;;;;;;15.46;88.23;100788.94;2010322;29;20053;-69
2022/10/29 00:53:23;;;;;;;11.80;4.95;;;;;;;15.46;88.15;100791.66;2018706;29;20412;-69
2022/10/29 00:54:32;;;;;;;11.50;5.60;;;;;;;15.48;88.21;100786.75;2008978;29;20068;-69
2022/10/29 00:55:34;;;;;;;10.55;4.57;;;;;;;15.50;88.01;100781.00;2010699;29;20041;-69
2022/10/29 00:56:42;;;;;;;13.07;5.90;;;;;;;15.51;87.87;100785.34;2016871;29;20048;-69
2022/10/29 00:57:51;;;;;;;15.45;5.28;;;;;;;15.52;87.92;100790.44;2008532;29;20057;-69
2022/10/29 00:58:59;;;;;;;12.27;5.05;;;;;;;15.54;87.85;100784.69;2009936;29;20486;-69
2022/10/29 01:00:01;;;;;;;10.77;4.68;;;;;;;15.56;87.93;100787.09;2001996;29;20545;-69
2022/10/29 01:01:04;;;;;;;15.45;5.50;;;;;;;15.57;88.11;100788.69;1994424;29;20049;-69
2022/10/29 01:02:10;;;;;;;11.13;5.25;;;;;;;15.57;88.19;100788.69;2009357;29;20040;-69
2022/10/29 01:03:12;;;;;;;9.98;5.40;;;;;;;15.58;87.97;100787.63;2001904;29;20038;-69
2022/10/29 01:04:23;;;;;;;11.82;5.13;;;;;;;15.59;87.79;100789.22;2002973;29;20061;-69
2022/10/29 01:05:28;;;;;;;12.75;5.10;;;;;;;15.60;87.89;100785.38;2009485;29;20053;-69
2022/10/29 01:06:33;;;;;;;12.82;5.10;;;;;;;15.63;87.93;100795.63;2010557;29;20046;-68
2022/10/29 01:07:41;;;;;;;10.73;4.53;;;;;;;15.64;87.94;100783.69;2010414;29;20400;-68
2022/10/29 01:08:44;;;;;;;10.88;5.00;;;;;;;15.64;87.71;100781.78;2017595;29;20060;-68
2022/10/29 01:09:48;;;;;;;11.45;4.78;;;;;;;15.65;87.83;100790.69;2017633;29;20083;-68
2022/10/29 01:11:11;;;;;;;14.70;4.95;;;;;;;15.66;87.79;100774.13;2003275;29;20090;-68
2022/10/29 01:12:53;;;;;;;8.65;4.85;;;;;;;15.69;87.53;100761.88;2010912;29;20048;-70
2022/10/29 01:14:28;;;;;;;11.48;5.00;;;;;;;15.71;87.69;100757.78;2019355;29;20568;-69
2022/10/29 01:15:46;;;;;;;11.68;4.80;;;;;;;15.74;87.45;100764.50;2010887;29;20402;-69
2022/10/29 01:17:24;;;;;;;13.00;5.20;;;;;;;15.75;87.35;100758.75;2010231;29;20084;-68
2022/10/29 01:18:57;;;;;;;14.38;5.28;;;;;;;15.75;87.24;100755.25;2010567;29;20045;-68
2022/10/29 01:20:05;;;;;;;8.32;4.78;;;;;;;15.78;87.19;100760.03;2012038;29;20513;-68
2022/10/29 01:21:23;;;;;;;10.40;4.93;;;;;;;15.80;87.08;100752.41;2010468;29;20060;-68
2022/10/29 01:22:42;;;;;;;14.57;5.07;;;;;;;15.82;87.19;100771.06;2002574;29;20064;-68
2022/10/29 01:24:06;;;;;;;9.43;5.32;;;;;;;15.82;86.89;100771.06;2012305;29;20068;-68
2022/10/29 01:25:49;;;;;;;10.32;4.75;;;;;;;15.82;87.01;100766.44;2010457;29;20073;-69
2022/10/29 01:27:11;;;;;;;;;;;;;;;15.83;86.78;100767.28;2001664;29;20050;-68
2022/10/29 01:29:07;;;;;;;18.17;5.20;;;;;;;15.81;86.85;100770.28;2007702;29;19915;-68
2022/10/29 01:30:31;;;;;;;13.20;4.55;;;;;;;15.81;86.93;100755.91;2009855;29;20197;-67
2022/10/29 01:32:03;;;;;;;12.50;5.03;;;;;;;15.81;86.85;100764.84;1996962;29;20045;-67
2022/10/29 01:33:53;;;;;;;11.20;4.80;;;;;;;15.81;86.67;100762.13;1989860;29;20034;-68
2022/10/29 01:35:04;;;;;;;11.95;5.25;;;;;;;15.83;86.71;100756.44;2015061;29;20115;-67
2022/10/29 01:36:22;;;;;;;10.73;4.70;;;;;;;15.81;86.70;100754.00;2010288;29;20049;-68
2022/10/29 01:37:28;;;;;;;13.77;4.95;;;;;;;15.81;86.67;100754.00;2010944;29;20073;-68
2022/10/29 01:39:00;;;;;;;10.07;4.60;;;;;;;15.83;86.92;100754.50;2015735;29;20524;-68
2022/10/29 01:40:25;;;;;;;15.35;4.75;;;;;;;15.84;86.86;100750.69;2016900;29;20045;-68
2022/10/29 01:41:39;;;;;;;11.82;4.75;;;;;;;15.85;86.74;100752.28;2005878;29;20050;-68
2022/10/29 01:42:52;;;;;;;11.90;4.60;;;;;;;15.85;86.91;100748.75;2004458;29;20053;-66
2022/10/29 01:44:06;;;;;;;11.35;4.88;;;;;;;15.87;86.62;100743.84;2009315;29;20041;-68
2022/10/29 01:45:43;;;;;;;16.50;5.45;;;;;;;15.88;86.71;100751.66;2003351;29;20041;-68
2022/10/29 01:46:56;;;;;;;12.38;4.60;;;;;;;15.89;86.50;100755.16;1994962;29;20460;-66
2022/10/29 01:48:22;;;;;;;15.88;4.68;;;;;;;15.90;86.60;100751.38;2006107;29;20570;-67
2022/10/29 01:49:47;;;;;;;11.27;5.60;;;;;;;15.90;86.70;100754.88;2023121;29;20064;-67
2022/10/29 01:50:56;;;;;;;10.43;5.25;;;;;;;15.91;86.65;100753.75;2006585;29;20438;-68
2022/10/29 01:52:02;;;;;;;8.65;4.13;;;;;;;15.92;86.45;100760.78;2004757;29;20045;-67
2022/10/29 01:53:24;;;;;;;12.15;4.60;;;;;;;15.93;86.22;100761.59;2010132;29;20038;-68
2022/10/29 01:54:46;;;;;;;10.48;4.30;;;;;;;15.92;86.55;100749.94;2005359;29;20041;-69
2022/10/29 01:55:49;;;;;;;12.77;4.88;;;;;;;15.91;86.49;100753.75;2002647;29;20422;-69
2022/10/29 01:56:56;;;;;;;22.85;4.97;;;;;;;15.91;86.17;100759.16;2003015;29;20053;-68
2022/10/29 01:58:02;;;;;;;8.52;4.57;;;;;;;15.91;86.47;100770.03;2010439;29;20041;-68
2022/10/29 01:59:09;;;;;;;12.25;4.50;;;;;;;15.92;86.53;100765.38;2009607;29;20042;-69
2022/10/29 02:00:16;;;;;;;11.18;4.45;;;;;;;15.92;86.46;100766.22;2009739;29;20041;-68
2022/10/29 02:01:53;;;;;;;10.32;4.75;;;;;;;15.91;86.23;100764.59;2001232;29;20054;-68
2022/10/29 02:02:57;;;;;;;10.35;4.15;;;;;;;15.90;86.47;100770.34;2002668;29;20042;-69
2022/10/29 02:04:14;;;;;;;11.57;4.53;;;;;;;15.90;86.53;100757.56;2001805;29;20045;-68
2022/10/29 02:05:28;;;;;;;10.32;5.05;;;;;;;15.92;86.78;100760.78;2009169;29;20049;-66
2022/10/29 02:06:51;;;;;;;11.25;4.30;;;;;;;15.94;86.51;100760.47;2009999;29;20049;-66
2022/10/29 02:08:03;;;;;;;9.18;4.03;;;;;;;15.94;86.48;100763.97;2002142;29;20056;-67
2022/10/29 02:09:26;;;;;;;14.10;4.95;;;;;;;15.96;86.48;100766.41;2002067;29;20052;-66
2022/10/29 02:10:49;;;;;;;10.52;4.80;;;;;;;15.94;86.41;100761.25;2001553;29;20109;-67
2022/10/29 02:12:02;;;;;;;9.10;4.65;;;;;;;15.96;86.41;100763.69;1996195;29;20053;-66
2022/10/29 02:13:06;;;;;;;14.82;4.85;;;;;;;15.96;86.15;100755.53;2003776;29;20704;-66
2022/10/29 02:14:18;;;;;;;12.13;4.65;;;;;;;15.96;86.32;100756.34;2010112;29;20040;-67
2022/10/29 02:15:34;;;;;;;14.52;4.85;;;;;;;15.98;86.15;100748.72;2003658;29;20057;-67
2022/10/29 02:16:36;;;;;;;10.85;4.88;;;;;;;15.97;86.34;100749.81;2010335;29;20139;-68
2022/10/29 02:17:43;;;;;;;9.57;4.38;;;;;;;15.98;86.16;100748.72;2010252;29;20053;-67
2022/10/29 02:18:48;;;;;;;15.70;4.60;;;;;;;15.98;86.34;100754.13;2010802;29;20386;-68
2022/10/29 02:19:51;;;;;;;15.25;4.95;;;;;;;15.98;86.21;100753.31;2010576;29;20045;-67
2022/10/29 02:20:56;;;;;;;11.48;4.55;;;;;;;15.96;86.08;100753.63;2010169;29;20048;-67
2022/10/29 02:22:00;;;;;;;9.57;4.70;;;;;;;15.94;86.23;100741.50;2009024;29;20033;-67
2022/10/29 02:23:04;;;;;;;12.57;5.18;;;;;;;15.94;86.01;100745.00;2010617;29;20037;-66
2022/10/29 02:24:08;;;;;;;8.60;4.10;;;;;;;15.96;86.04;100750.91;2010869;29;20056;-67
2022/10/29 02:25:10;;;;;;;10.15;4.35;;;;;;;15.98;86.33;100745.16;2009929;29;20045;-67
2022/10/29 02:26:14;;;;;;;11.93;4.72;;;;;;;15.98;86.22;100748.72;2010340;29;20037;-67
2022/10/29 02:27:17;;;;;;;7.47;4.43;;;;;;;15.99;86.28;100744.09;2009626;29;20045;-67
2022/10/29 02:28:19;;;;;;;12.50;4.18;;;;;;;16.01;86.28;100741.03;2017899;29;20037;-67
2022/10/29 02:29:25;;;;;;;15.50;4.88;;;;;;;15.99;86.19;100744.88;2025005;29;20048;-67
2022/10/29 02:30:27;;;;;;;12.60;4.20;;;;;;;16.03;86.25;100744.25;2010410;29;20045;-66
2022/10/29 02:31:30;;;;;;;14.52;4.53;;;;;;;16.03;86.06;100755.09;2010454;29;20049;-67
2022/10/29 02:32:34;;;;;;;12.52;4.47;;;;;;;16.04;86.25;100756.69;2008943;29;20493;-67
2022/10/29 02:33:40;;;;;;;10.63;4.18;;;;;;;16.05;86.19;100761.03;2008938;29;20041;-67
2022/10/29 02:34:43;;;;;;;9.27;4.22;;;;;;;16.05;85.88;100755.59;2001346;29;20475;-67
2022/10/29 02:35:46;;;;;;;14.65;4.95;;;;;;;16.05;86.18;100756.41;2001585;29;20553;-67
2022/10/29 02:36:49;;;;;;;10.73;3.97;;;;;;;16.06;85.99;100754.47;2008923;29;20122;-66
2022/10/29 02:37:52;;;;;;;8.40;3.95;;;;;;;16.06;85.89;100754.47;2007950;29;20505;-67
2022/10/29 02:38:54;;;;;;;9.38;4.32;;;;;;;16.06;86.10;100741.72;2001190;29;20054;-67
2022/10/29 02:39:57;;;;;;;11.38;4.22;;;;;;;16.08;86.19;100746.81;2001604;29;20065;-66
2022/10/29 02:41:00;;;;;;;9.40;4.30;;;;;;;16.08;85.84;100750.34;2001096;29;20049;-66
2022/10/29 02:42:04;;;;;;;14.20;4.40;;;;;;;16.09;85.83;100743.03;2001965;29;20054;-66
2022/10/29 02:43:09;;;;;;;12.63;4.20;;;;;;;16.09;85.83;100732.97;2016929;29;20054;-66
2022/10/29 02:44:16;;;;;;;8.75;4.60;;;;;;;16.10;85.88;100729.13;2022848;29;20052;-66
2022/10/29 02:45:21;;;;;;;11.65;4.88;;;;;;;16.12;85.68;100726.13;2010483;29;20037;-66
2022/10/29 02:46:24;;;;;;;10.10;4.45;;;;;;;16.14;85.69;100723.88;2002395;29;20494;-66
2022/10/29 02:47:27;;;;;;;10.48;5.13;;;;;;;16.12;85.61;100726.13;2010062;29;20049;-68
2022/10/29 02:48:35;;;;;;;9.48;4.10;;;;;;;16.11;85.43;100733.47;2016490;29;20504;-67
2022/10/29 02:49:42;;;;;;;15.73;4.35;;;;;;;16.12;85.58;100737.75;2017233;29;20064;-66
2022/10/29 02:50:48;;;;;;;11.13;5.07;;;;;;;16.13;85.38;100736.66;2015959;29;20055;-67
2022/10/29 02:51:58;;;;;;;17.05;5.13;;;;;;;16.11;85.49;100732.63;2017959;29;20040;-67
2022/10/29 02:53:00;;;;;;;9.68;3.85;;;;;;;16.14;85.71;100729.31;2001048;29;20048;-67
2022/10/29 02:54:07;;;;;;;11.38;4.30;;;;;;;16.16;85.41;100735.22;2002405;29;20045;-67
2022/10/29 02:55:10;;;;;;;15.10;4.57;;;;;;;16.15;85.53;100737.16;2009615;29;20517;-67
2022/10/29 02:56:14;;;;;;;10.85;4.43;;;;;;;16.17;85.25;100742.25;2002593;29;20061;-67
2022/10/29 02:57:19;;;;;;;9.77;4.43;;;;;;;16.17;85.55;100739.53;2002408;29;20038;-67
2022/10/29 02:58:22;;;;;;;11.88;5.03;;;;;;;16.17;85.32;100734.94;2002489;29;20042;-66
2022/10/29 02:59:26;;;;;;;8.02;4.00;;;;;;;16.18;85.24;100735.72;2010304;29;20045;-66
2022/10/29 03:00:31;;;;;;;11.32;4.70;;;;;;;16.19;85.13;100731.91;2009700;29;20040;-67
2022/10/29 03:01:33;;;;;;;11.98;4.53;;;;;;;16.20;85.19;100733.47;2002026;29;20050;-67
2022/10/29 03:02:43;;;;;;;11.93;4.30;;;;;;;16.17;84.97;100731.41;2010006;29;20049;-67
2022/10/29 03:03:48;;;;;;;10.63;4.22;;;;;;;16.16;84.97;100732.53;2001448;29;20054;-66
2022/10/29 03:04:51;;;;;;;8.13;4.10;;;;;;;16.16;85.01;100732.53;1994304;29;20047;-66
2022/10/29 03:05:54;;;;;;;13.88;4.53;;;;;;;16.13;84.86;100733.13;2001252;29;20058;-66
2022/10/29 03:06:57;;;;;;;10.48;4.35;;;;;;;16.12;85.16;100732.34;2016511;29;20040;-66
2022/10/29 03:08:00;;;;;;;12.57;4.53;;;;;;;16.12;84.93;100726.91;2013117;29;20036;-66
2022/10/29 03:09:03;;;;;;;18.58;4.50;;;;;;;16.12;85.34;100728.84;2009046;29;20129;-66
2022/10/29 03:10:09;;;;;;;10.15;4.03;;;;;;;16.12;85.07;100726.13;2001185;29;20063;-67
2022/10/29 03:11:16;;;;;;;11.90;4.30;;;;;;;16.12;85.07;100726.13;2003283;29;20049;-67
2022/10/29 03:12:18;;;;;;;6.97;3.97;;;;;;;16.12;85.36;100731.53;2010330;29;20038;-69
2022/10/29 03:13:20;;;;;;;12.70;4.53;;;;;;;16.11;85.08;100735.34;2018167;29;20497;-66
2022/10/29 03:14:24;;;;;;;10.52;4.28;;;;;;;16.11;84.99;100746.19;2010127;29;20044;-69
2022/10/29 03:15:27;;;;;;;13.05;3.95;;;;;;;16.12;85.03;100748.63;1996292;29;20058;-68
2022/10/29 03:16:33;;;;;;;9.68;4.75;;;;;;;16.10;85.23;100744.59;2019267;29;20056;-68
2022/10/29 03:17:35;;;;;;;10.88;4.75;;;;;;;16.08;85.20;100742.22;2019222;29;20048;-68
2022/10/29 03:18:37;;;;;;;11.65;4.15;;;;;;;16.09;85.23;100754.66;2011343;29;20037;-69
2022/10/29 03:19:40;;;;;;;12.52;4.45;;;;;;;16.10;85.26;100750.81;2019033;29;20040;-68
2022/10/29 03:20:46;;;;;;;11.63;4.13;;;;;;;16.08;85.18;100746.81;2011279;29;20053;-68
2022/10/29 03:21:50;;;;;;;12.07;4.78;;;;;;;16.08;85.16;100749.53;2003673;29;20046;-68
2022/10/29 03:22:56;;;;;;;9.82;4.40;;;;;;;16.06;85.14;100740.94;2002678;29;20050;-67
2022/10/29 03:24:02;;;;;;;19.80;4.40;;;;;;;16.06;85.19;100740.94;2005162;29;20054;-68
2022/10/29 03:25:07;;;;;;;10.63;4.60;;;;;;;16.08;85.22;100730.53;2003778;29;20048;-68
2022/10/29 03:26:11;;;;;;;17.50;4.43;;;;;;;16.08;85.19;100735.97;2003659;29;20041;-68
2022/10/29 03:27:16;;;;;;;9.48;4.22;;;;;;;16.08;85.21;100731.38;2003535;29;20040;-68
2022/10/29 03:28:21;;;;;;;13.77;4.78;;;;;;;16.09;85.33;100732.16;1996237;29;20503;-68
2022/10/29 03:29:23;;;;;;;17.38;4.78;;;;;;;16.08;85.37;100725.13;2004152;29;20046;-67
2022/10/29 03:30:29;;;;;;;12.30;4.50;;;;;;;16.10;85.15;100728.34;2010574;29;20057;-68
2022/10/29 03:31:32;;;;;;;11.40;4.55;;;;;;;16.07;85.16;100729.75;2003618;29;20418;-68
2022/10/29 03:32:34;;;;;;;10.55;4.43;;;;;;;16.07;85.17;100734.38;2003573;29;20057;-68
2022/10/29 03:33:37;;;;;;;10.70;4.22;;;;;;;16.07;84.85;100724.31;2010865;29;20037;-68
2022/10/29 03:34:40;;;;;;;10.70;4.57;;;;;;;16.07;84.97;100728.97;2001969;29;20065;-68
2022/10/29 03:35:43;;;;;;;18.15;4.72;;;;;;;16.05;85.12;100729.28;1987843;29;20043;-67
2022/10/29 03:36:49;;;;;;;10.55;4.28;;;;;;;16.05;85.05;100729.28;1995517;29;20042;-68
2022/10/29 03:37:56;;;;;;;10.55;4.40;;;;;;;16.02;85.06;100732.63;2005346;29;20057;-68
2022/10/29 03:38:59;;;;;;;11.93;4.72;;;;;;;16.02;85.14;100729.09;2010707;29;20470;-68
2022/10/29 03:40:03;;;;;;;13.68;4.25;;;;;;;16.01;84.94;100727.50;2010091;29;20041;-68
2022/10/29 03:41:09;;;;;;;13.20;4.38;;;;;;;16.01;85.29;100735.63;2009958;29;20090;-69
2022/10/29 03:42:11;;;;;;;16.80;4.53;;;;;;;15.98;85.02;100737.88;2010963;29;20060;-69
2022/10/29 03:43:15;;;;;;;11.23;4.10;;;;;;;15.96;85.22;100733.84;2017309;29;20068;-68
2022/10/29 03:44:18;;;;;;;17.30;4.70;;;;;;;15.94;85.18;100738.78;2010095;29;20045;-68
2022/10/29 03:45:23;;;;;;;8.23;4.50;;;;;;;15.94;85.29;100741.50;2018195;29;20075;-68
2022/10/29 03:46:29;;;;;;;8.60;4.90;;;;;;;15.95;85.59;100743.09;2025625;29;20044;-68
2022/10/29 03:47:32;;;;;;;11.65;5.07;;;;;;;15.92;85.60;100749.94;2010918;29;20486;-68
2022/10/29 03:48:36;;;;;;;11.57;4.93;;;;;;;15.90;85.38;100746.72;2004191;29;20061;-68
2022/10/29 03:49:43;;;;;;;14.25;4.82;;;;;;;15.90;85.58;100746.72;2011320;29;20053;-68
2022/10/29 03:51:04;;;;;;;15.85;4.53;;;;;;;15.89;85.77;100745.13;2011205;29;20406;-68
2022/10/29 03:52:10;;;;;;;17.15;4.55;;;;;;;15.91;85.93;100748.31;2011115;29;20053;-69
2022/10/29 03:53:17;;;;;;;13.95;5.47;;;;;;;15.92;85.74;100749.94;2010616;29;20167;-68
2022/10/29 03:54:20;;;;;;;11.32;4.35;;;;;;;15.87;85.78;100747.34;2010984;29;20045;-68
2022/10/29 03:55:23;;;;;;;13.30;5.22;;;;;;;15.87;85.86;100746.56;2011205;29;20037;-68
2022/10/29 03:56:25;;;;;;;11.48;4.18;;;;;;;15.83;85.72;100757.22;2003205;29;20052;-68
2022/10/29 03:57:31;;;;;;;14.80;5.40;;;;;;;15.83;85.93;100751.81;1996190;29;20057;-68
2022/10/29 03:58:34;;;;;;;16.55;4.95;;;;;;;15.84;86.14;100747.97;2011234;29;20042;-68
2022/10/29 03:59:37;;;;;;;13.85;4.97;;;;;;;15.86;86.17;100745.75;2011070;29;20442;-68
2022/10/29 04:00:42;;;;;;;12.40;5.13;;;;;;;15.87;86.15;100744.63;2003862;29;20072;-68
2022/10/29 04:01:45;;;;;;;11.30;4.90;;;;;;;15.83;86.30;100740.94;2011020;29;20049;-68
2022/10/29 04:02:48;;;;;;;10.85;4.63;;;;;;;15.84;86.07;100745.25;2026497;29;20500;-68
2022/10/29 04:03:50;;;;;;;12.45;4.53;;;;;;;15.83;86.29;100735.53;2010817;29;20421;-68
2022/10/29 04:04:53;;;;;;;13.32;5.38;;;;;;;15.84;86.15;100741.75;2011353;29;20394;-68
2022/10/29 04:05:56;;;;;;;14.43;6.18;;;;;;;15.82;86.24;100739.34;2011016;29;20044;-68
2022/10/29 04:06:59;;;;;;;18.48;4.70;;;;;;;15.81;86.23;100737.75;2002733;29;20057;-68
2022/10/29 04:08:01;;;;;;;14.07;4.65;;;;;;;15.81;86.43;100736.94;2008653;29;20111;-68
2022/10/29 04:09:04;;;;;;;15.02;4.80;;;;;;;15.80;86.51;100730.72;2009850;29;20056;-68
2022/10/29 04:10:07;;;;;;;11.82;4.97;;;;;;;15.79;86.58;100734.53;2009791;29;20034;-68
2022/10/29 04:11:15;;;;;;;9.15;4.80;;;;;;;15.80;86.46;100740.78;2002428;29;20057;-67
2022/10/29 04:12:19;;;;;;;17.15;5.35;;;;;;;15.78;86.36;100735.66;2010008;29;20395;-66
2022/10/29 04:13:26;;;;;;;10.88;4.90;;;;;;;15.78;86.74;100738.34;2010657;29;20086;-67
2022/10/29 04:14:29;;;;;;;10.77;4.88;;;;;;;15.77;86.68;100736.75;2002098;29;20450;-67
2022/10/29 04:15:35;;;;;;;11.13;4.68;;;;;;;15.76;86.72;100732.44;2003258;29;20050;-69
2022/10/29 04:16:39;;;;;;;11.32;4.72;;;;;;;15.75;86.66;100733.56;2010696;29;20053;-68
2022/10/29 04:17:44;;;;;;;13.73;4.80;;;;;;;15.75;86.72;100720.00;2002215;29;20042;-68
2022/10/29 04:18:49;;;;;;;14.50;4.78;;;;;;;15.72;86.87;100723.31;1996087;29;20054;-68
2022/10/29 04:19:59;;;;;;;9.75;4.78;;;;;;;15.72;86.83;100724.13;2018409;29;20057;-67
2022/10/29 04:21:05;;;;;;;8.70;4.50;;;;;;;15.72;86.91;100723.31;2023558;29;20032;-68
2022/10/29 04:22:11;;;;;;;11.32;4.95;;;;;;;15.72;87.16;100723.31;2010168;29;20061;-67
2022/10/29 04:23:19;;;;;;;13.80;4.95;;;;;;;15.68;87.04;100722.34;2010403;29;20049;-67
2022/10/29 04:24:26;;;;;;;17.13;5.60;;;;;;;15.69;87.17;100726.66;2003515;29;20064;-67
2022/10/29 04:25:29;;;;;;;16.77;5.28;;;;;;;15.71;87.21;100727.16;2004795;29;20057;-69
2022/10/29 04:26:31;;;;;;;13.00;5.32;;;;;;;15.72;87.26;100734.16;2011104;29;20421;-66
2022/10/29 04:27:37;;;;;;;17.70;5.57;;;;;;;15.73;87.46;100735.75;2009911;29;20049;-66
2022/10/29 04:28:39;;;;;;;12.55;5.05;;;;;;;15.70;87.10;100737.19;2009972;29;20454;-68
2022/10/29 04:29:42;;;;;;;15.38;4.78;;;;;;;15.69;87.25;100737.50;2009385;29;20049;-68
2022/10/29 04:30:44;;;;;;;15.32;5.25;;;;;;;15.68;86.91;100752.16;2009385;29;20804;-68
2022/10/29 04:31:46;;;;;;;12.45;4.97;;;;;;;15.64;87.23;100743.03;2001709;29;20046;-67
2022/10/29 04:32:50;;;;;;;12.93;5.60;;;;;;;15.64;87.23;100748.44;2002006;29;20052;-67
2022/10/29 04:33:56;;;;;;;15.40;5.45;;;;;;;15.60;87.41;100742.00;2017519;29;20060;-68
2022/10/29 04:35:01;;;;;;;14.18;5.57;;;;;;;15.60;87.50;100742.00;2008786;29;20068;-67
2022/10/29 04:36:08;;;;;;;18.80;5.32;;;;;;;15.57;87.59;100739.91;2001925;29;20072;-68
2022/10/29 04:37:10;;;;;;;13.10;5.22;;;;;;;15.57;87.90;100737.22;2009397;29;20362;-68
2022/10/29 04:38:13;;;;;;;13.77;5.22;;;;;;;15.58;87.60;100728.00;2000926;29;20045;-67
2022/10/29 04:39:16;;;;;;;17.40;5.28;;;;;;;15.59;87.82;100735.81;2016707;29;20040;-68
2022/10/29 04:40:20;;;;;;;14.60;5.78;;;;;;;15.61;88.02;100736.31;2015405;29;20049;-67
2022/10/29 04:41:28;;;;;;;10.82;5.75;;;;;;;15.62;88.09;100735.19;2001654;29;20045;-67
2022/10/29 04:42:38;;;;;;;16.20;6.20;;;;;;;15.66;87.94;100738.06;1993201;29;20134;-66
2022/10/29 04:43:40;;;;;;;;;;;;;;;15.68;88.18;100733.19;2002344;29;20061;-67
2022/10/29 04:44:43;;;;;;;16.73;5.85;;;;;;;15.67;88.16;100737.03;2000842;29;20413;-67
2022/10/29 04:45:52;;;;;;;23.23;6.25;;;;;;;15.64;88.12;100740.31;1993727;29;20061;-67
2022/10/29 04:46:59;;;;;;;16.15;7.30;;;;;;;15.64;87.95;100737.59;1994618;29;20054;-67
2022/10/29 04:48:05;;;;;;;20.48;7.50;;;;;;;15.64;88.28;100735.69;2000772;29;20053;-67
2022/10/29 04:49:10;;;;;;;18.42;7.55;;;;;;;15.64;88.50;100737.59;2000863;29;20034;-67
2022/10/29 04:50:19;;;;;;;17.92;7.35;;;;;;;15.65;88.38;100740.00;2001427;29;20386;-66
2022/10/29 04:51:24;;;;;;;20.00;7.13;;;;;;;15.69;88.65;100737.50;2008646;29;20049;-67
2022/10/29 04:52:27;;;;;;;21.92;7.20;;;;;;;15.71;88.77;100740.72;2008272;29;20056;-68
2022/10/29 04:53:31;;;;;;;15.18;7.47;;;;;;;15.73;88.56;100746.59;1995353;29;20045;-67
2022/10/29 04:54:35;;;;;;;20.15;8.18;;;;;;;15.75;88.82;100738.97;2002088;29;20041;-73
2022/10/29 04:55:39;;;;;;;16.38;8.48;;;;;;;15.73;88.58;100739.28;2009278;29;20045;-67
2022/10/29 04:56:42;;;;;;;17.35;7.72;;;;;;;15.73;88.48;100733.06;2001625;29;20058;-68
2022/10/29 04:57:49;;;;;;;20.52;8.43;;;;;;;15.75;88.96;100736.25;2009303;29;20053;-68
2022/10/29 04:58:54;;;;;;;23.58;8.70;;;;;;;15.74;88.67;100743.59;2009245;29;20046;-68
2022/10/29 04:59:59;;;;;;;21.52;9.77;;;;;;;15.74;88.52;100743.59;2009374;29;20046;-68
2022/10/29 05:01:03;;;;;;;24.55;8.80;;;;;;;15.74;88.90;100742.81;2009163;29;20061;-67
2022/10/29 05:02:09;;;;;;;28.25;9.02;;;;;;;15.76;88.84;100746.00;2009203;29;20102;-67
2022/10/29 05:03:11;;;;;;;27.33;9.40;;;;;;;15.77;88.89;100742.19;2009034;29;20044;-68
2022/10/29 05:04:14;;;;;;;23.40;8.35;;;;;;;15.76;88.89;100748.69;2001616;29;20100;-67
2022/10/29 05:05:20;;;;;;;22.77;9.18;;;;;;;15.77;88.93;100753.03;2008958;29;20060;-67
2022/10/29 05:06:23;;;;;;;20.63;8.85;;;;;;;15.78;88.95;100756.53;2009106;29;20077;-66
2022/10/29 05:07:26;;;;;;;24.98;8.88;;;;;;;15.75;89.02;100758.75;2001514;29;20048;-68
2022/10/29 05:08:31;;;;;;;22.10;8.45;;;;;;;15.75;88.96;100766.09;2000766;29;20038;-68
2022/10/29 05:09:36;;;;;;;24.55;9.32;;;;;;;15.74;89.16;100759.06;2008448;29;20060;-66
2022/10/29 05:10:38;;;;;;;24.73;9.05;;;;;;;15.71;89.09;100770.53;2023788;29;20044;-68
2022/10/29 05:11:41;;;;;;;23.92;10.07;;;;;;;15.68;89.08;100774.66;2015508;29;20045;-67